sensor_id;sensor_type;location;lat;lon;timestamp;P1;durP1;ratioP1;P2;durP2;ratioP2
20069;SDS011;10195;50.868;4.382;2024-03-08T00:01:35;27.80;;;16.57;;
20069;SDS011;10195;50.868;4.382;2024-03-08T00:04:01;29.37;;;15.70;;
20069;SDS011;10195;50.868;4.382;2024-03-08T00:06:26;24.80;;;14.37;;
20069;SDS011;10195;50.868;4.382;2024-03-08T00:08:52;26.20;;;15.37;;
20069;SDS011;10195;50.868;4.382;2024-03-08T00:11:18;28.20;;;15.40;;
20069;SDS011;10195;50.868;4.382;2024-03-08T00:13:43;28.17;;;15.10;;
20069;SDS011;10195;50.868;4.382;2024-03-08T00:16:10;29.90;;;15.73;;
20069;SDS011;10195;50.868;4.382;2024-03-08T00:18:35;32.87;;;15.07;;
20069;SDS011;10195;50.868;4.382;2024-03-08T00:21:01;28.20;;;16.10;;
20069;SDS011;10195;50.868;4.382;2024-03-08T00:23:27;30.13;;;14.73;;
20069;SDS011;10195;50.868;4.382;2024-03-08T00:25:53;25.63;;;14.80;;
20069;SDS011;10195;50.868;4.382;2024-03-08T00:28:20;27.83;;;15.57;;
20069;SDS011;10195;50.868;4.382;2024-03-08T00:30:46;27.37;;;15.23;;
20069;SDS011;10195;50.868;4.382;2024-03-08T00:33:12;29.27;;;14.40;;
20069;SDS011;10195;50.868;4.382;2024-03-08T00:35:38;26.37;;;14.53;;
20069;SDS011;10195;50.868;4.382;2024-03-08T00:38:03;24.47;;;14.37;;
20069;SDS011;10195;50.868;4.382;2024-03-08T00:40:29;28.43;;;15.97;;
20069;SDS011;10195;50.868;4.382;2024-03-08T00:42:55;27.53;;;15.03;;
20069;SDS011;10195;50.868;4.382;2024-03-08T00:45:20;30.13;;;15.50;;
20069;SDS011;10195;50.868;4.382;2024-03-08T00:47:48;24.50;;;14.73;;
20069;SDS011;10195;50.868;4.382;2024-03-08T00:50:14;27.60;;;14.60;;
20069;SDS011;10195;50.868;4.382;2024-03-08T00:52:39;30.00;;;15.80;;
20069;SDS011;10195;50.868;4.382;2024-03-08T00:55:05;35.73;;;16.60;;
20069;SDS011;10195;50.868;4.382;2024-03-08T00:57:32;28.87;;;16.23;;
20069;SDS011;10195;50.868;4.382;2024-03-08T00:59:58;28.33;;;15.67;;
20069;SDS011;10195;50.868;4.382;2024-03-08T01:02:24;33.17;;;15.73;;
20069;SDS011;10195;50.868;4.382;2024-03-08T01:04:50;28.87;;;16.07;;
20069;SDS011;10195;50.868;4.382;2024-03-08T01:07:15;26.93;;;15.03;;
20069;SDS011;10195;50.868;4.382;2024-03-08T01:09:41;29.37;;;16.03;;
20069;SDS011;10195;50.868;4.382;2024-03-08T01:12:07;31.30;;;16.57;;
20069;SDS011;10195;50.868;4.382;2024-03-08T01:14:33;28.67;;;15.83;;
20069;SDS011;10195;50.868;4.382;2024-03-08T01:16:58;31.00;;;15.43;;
20069;SDS011;10195;50.868;4.382;2024-03-08T01:19:24;31.17;;;17.40;;
20069;SDS011;10195;50.868;4.382;2024-03-08T01:21:50;32.70;;;16.40;;
20069;SDS011;10195;50.868;4.382;2024-03-08T01:24:16;26.23;;;15.93;;
20069;SDS011;10195;50.868;4.382;2024-03-08T01:26:42;30.47;;;15.90;;
20069;SDS011;10195;50.868;4.382;2024-03-08T01:29:08;33.20;;;16.80;;
20069;SDS011;10195;50.868;4.382;2024-03-08T01:31:33;32.10;;;17.83;;
20069;SDS011;10195;50.868;4.382;2024-03-08T01:34:01;32.90;;;17.73;;
20069;SDS011;10195;50.868;4.382;2024-03-08T01:36:27;33.50;;;17.73;;
20069;SDS011;10195;50.868;4.382;2024-03-08T01:38:52;33.23;;;16.77;;
20069;SDS011;10195;50.868;4.382;2024-03-08T01:41:18;33.50;;;17.53;;
20069;SDS011;10195;50.868;4.382;2024-03-08T01:43:44;30.77;;;16.27;;
20069;SDS011;10195;50.868;4.382;2024-03-08T01:46:10;30.37;;;17.80;;
20069;SDS011;10195;50.868;4.382;2024-03-08T01:48:41;29.73;;;16.80;;
20069;SDS011;10195;50.868;4.382;2024-03-08T01:51:07;30.80;;;17.43;;
20069;SDS011;10195;50.868;4.382;2024-03-08T01:53:33;33.57;;;18.17;;
20069;SDS011;10195;50.868;4.382;2024-03-08T01:56:00;29.97;;;18.40;;
20069;SDS011;10195;50.868;4.382;2024-03-08T01:58:27;33.30;;;18.30;;
20069;SDS011;10195;50.868;4.382;2024-03-08T02:00:54;36.97;;;17.40;;
20069;SDS011;10195;50.868;4.382;2024-03-08T02:03:23;31.17;;;17.53;;
20069;SDS011;10195;50.868;4.382;2024-03-08T02:05:49;29.07;;;17.37;;
20069;SDS011;10195;50.868;4.382;2024-03-08T02:08:16;31.67;;;18.40;;
20069;SDS011;10195;50.868;4.382;2024-03-08T02:10:43;31.83;;;17.97;;
20069;SDS011;10195;50.868;4.382;2024-03-08T02:13:09;33.20;;;18.83;;
20069;SDS011;10195;50.868;4.382;2024-03-08T02:15:51;34.07;;;17.90;;
20069;SDS011;10195;50.868;4.382;2024-03-08T02:18:18;34.10;;;18.30;;
20069;SDS011;10195;50.868;4.382;2024-03-08T02:21:06;30.37;;;17.60;;
20069;SDS011;10195;50.868;4.382;2024-03-08T02:23:31;38.90;;;18.20;;
20069;SDS011;10195;50.868;4.382;2024-03-08T02:25:57;31.60;;;18.53;;
20069;SDS011;10195;50.868;4.382;2024-03-08T02:28:23;32.97;;;18.57;;
20069;SDS011;10195;50.868;4.382;2024-03-08T02:30:54;29.50;;;18.60;;
20069;SDS011;10195;50.868;4.382;2024-03-08T02:33:20;27.33;;;17.50;;
20069;SDS011;10195;50.868;4.382;2024-03-08T02:35:47;32.67;;;18.60;;
20069;SDS011;10195;50.868;4.382;2024-03-08T02:38:14;31.53;;;18.97;;
20069;SDS011;10195;50.868;4.382;2024-03-08T02:40:42;33.80;;;18.20;;
20069;SDS011;10195;50.868;4.382;2024-03-08T02:43:08;35.97;;;18.70;;
20069;SDS011;10195;50.868;4.382;2024-03-08T02:45:34;32.47;;;18.67;;
20069;SDS011;10195;50.868;4.382;2024-03-08T02:48:00;31.30;;;18.80;;
20069;SDS011;10195;50.868;4.382;2024-03-08T02:50:26;33.80;;;19.27;;
20069;SDS011;10195;50.868;4.382;2024-03-08T02:52:52;30.50;;;18.93;;
20069;SDS011;10195;50.868;4.382;2024-03-08T02:55:18;34.77;;;19.50;;
20069;SDS011;10195;50.868;4.382;2024-03-08T02:57:44;32.23;;;19.33;;
20069;SDS011;10195;50.868;4.382;2024-03-08T03:00:12;33.77;;;19.93;;
20069;SDS011;10195;50.868;4.382;2024-03-08T03:02:38;36.30;;;19.13;;
20069;SDS011;10195;50.868;4.382;2024-03-08T03:05:04;33.40;;;19.57;;
20069;SDS011;10195;50.868;4.382;2024-03-08T03:07:31;31.30;;;17.83;;
20069;SDS011;10195;50.868;4.382;2024-03-08T03:09:58;32.83;;;19.33;;
20069;SDS011;10195;50.868;4.382;2024-03-08T03:12:25;34.50;;;20.93;;
20069;SDS011;10195;50.868;4.382;2024-03-08T03:14:55;33.83;;;20.23;;
20069;SDS011;10195;50.868;4.382;2024-03-08T03:17:22;31.87;;;19.90;;
20069;SDS011;10195;50.868;4.382;2024-03-08T03:19:51;32.40;;;19.77;;
20069;SDS011;10195;50.868;4.382;2024-03-08T03:22:18;33.00;;;19.77;;
20069;SDS011;10195;50.868;4.382;2024-03-08T03:24:47;36.13;;;21.20;;
20069;SDS011;10195;50.868;4.382;2024-03-08T03:27:13;36.43;;;20.53;;
20069;SDS011;10195;50.868;4.382;2024-03-08T03:29:40;33.50;;;19.67;;
20069;SDS011;10195;50.868;4.382;2024-03-08T03:32:17;45.80;;;20.23;;
20069;SDS011;10195;50.868;4.382;2024-03-08T03:34:46;29.37;;;20.07;;
20069;SDS011;10195;50.868;4.382;2024-03-08T03:37:12;31.13;;;19.87;;
20069;SDS011;10195;50.868;4.382;2024-03-08T03:39:38;33.03;;;20.53;;
20069;SDS011;10195;50.868;4.382;2024-03-08T03:42:16;30.73;;;20.83;;
20069;SDS011;10195;50.868;4.382;2024-03-08T03:44:49;35.23;;;20.40;;
20069;SDS011;10195;50.868;4.382;2024-03-08T03:47:15;32.23;;;19.37;;
20069;SDS011;10195;50.868;4.382;2024-03-08T03:49:41;35.27;;;19.67;;
20069;SDS011;10195;50.868;4.382;2024-03-08T03:52:07;36.37;;;19.40;;
20069;SDS011;10195;50.868;4.382;2024-03-08T03:54:33;30.33;;;20.03;;
20069;SDS011;10195;50.868;4.382;2024-03-08T03:56:59;31.13;;;20.40;;
20069;SDS011;10195;50.868;4.382;2024-03-08T03:59:25;33.80;;;21.07;;
20069;SDS011;10195;50.868;4.382;2024-03-08T04:01:52;34.23;;;21.93;;
20069;SDS011;10195;50.868;4.382;2024-03-08T04:04:18;32.47;;;19.67;;
20069;SDS011;10195;50.868;4.382;2024-03-08T04:06:44;35.47;;;21.50;;
20069;SDS011;10195;50.868;4.382;2024-03-08T04:09:10;34.33;;;20.87;;
20069;SDS011;10195;50.868;4.382;2024-03-08T04:11:37;32.83;;;21.30;;
20069;SDS011;10195;50.868;4.382;2024-03-08T04:14:03;33.23;;;21.70;;
20069;SDS011;10195;50.868;4.382;2024-03-08T04:16:30;35.67;;;21.83;;
20069;SDS011;10195;50.868;4.382;2024-03-08T04:18:56;34.33;;;21.20;;
20069;SDS011;10195;50.868;4.382;2024-03-08T04:21:22;33.67;;;21.07;;
20069;SDS011;10195;50.868;4.382;2024-03-08T04:23:48;33.90;;;20.70;;
20069;SDS011;10195;50.868;4.382;2024-03-08T04:26:14;35.97;;;21.90;;
20069;SDS011;10195;50.868;4.382;2024-03-08T04:28:39;32.63;;;20.37;;
20069;SDS011;10195;50.868;4.382;2024-03-08T04:31:06;33.50;;;20.73;;
20069;SDS011;10195;50.868;4.382;2024-03-08T04:33:32;34.73;;;21.43;;
20069;SDS011;10195;50.868;4.382;2024-03-08T04:36:00;30.87;;;20.83;;
20069;SDS011;10195;50.868;4.382;2024-03-08T04:38:26;35.93;;;21.03;;
20069;SDS011;10195;50.868;4.382;2024-03-08T04:40:52;34.33;;;22.10;;
20069;SDS011;10195;50.868;4.382;2024-03-08T04:43:18;34.70;;;20.67;;
20069;SDS011;10195;50.868;4.382;2024-03-08T04:45:45;32.97;;;20.83;;
20069;SDS011;10195;50.868;4.382;2024-03-08T04:48:11;32.60;;;21.03;;
20069;SDS011;10195;50.868;4.382;2024-03-08T04:50:37;36.37;;;22.23;;
20069;SDS011;10195;50.868;4.382;2024-03-08T04:53:03;35.97;;;21.17;;
20069;SDS011;10195;50.868;4.382;2024-03-08T04:55:33;32.30;;;20.87;;
20069;SDS011;10195;50.868;4.382;2024-03-08T04:57:59;38.00;;;21.63;;
20069;SDS011;10195;50.868;4.382;2024-03-08T05:00:25;33.07;;;20.60;;
20069;SDS011;10195;50.868;4.382;2024-03-08T05:02:50;36.47;;;21.13;;
20069;SDS011;10195;50.868;4.382;2024-03-08T05:05:18;32.17;;;19.67;;
20069;SDS011;10195;50.868;4.382;2024-03-08T05:07:44;37.33;;;21.63;;
20069;SDS011;10195;50.868;4.382;2024-03-08T05:10:10;34.27;;;20.80;;
20069;SDS011;10195;50.868;4.382;2024-03-08T05:12:36;37.27;;;21.07;;
20069;SDS011;10195;50.868;4.382;2024-03-08T05:15:05;34.23;;;21.57;;
20069;SDS011;10195;50.868;4.382;2024-03-08T05:17:32;32.93;;;21.27;;
20069;SDS011;10195;50.868;4.382;2024-03-08T05:19:58;34.03;;;21.40;;
20069;SDS011;10195;50.868;4.382;2024-03-08T05:22:23;34.73;;;20.83;;
20069;SDS011;10195;50.868;4.382;2024-03-08T05:24:51;37.23;;;21.40;;
20069;SDS011;10195;50.868;4.382;2024-03-08T05:27:16;32.80;;;21.20;;
20069;SDS011;10195;50.868;4.382;2024-03-08T05:29:42;34.07;;;19.90;;
20069;SDS011;10195;50.868;4.382;2024-03-08T05:32:08;35.57;;;21.20;;
20069;SDS011;10195;50.868;4.382;2024-03-08T05:34:35;36.07;;;21.37;;
20069;SDS011;10195;50.868;4.382;2024-03-08T05:37:00;35.23;;;21.50;;
20069;SDS011;10195;50.868;4.382;2024-03-08T05:39:26;41.50;;;21.73;;
20069;SDS011;10195;50.868;4.382;2024-03-08T05:41:52;32.30;;;19.90;;
20069;SDS011;10195;50.868;4.382;2024-03-08T05:44:20;33.57;;;21.47;;
20069;SDS011;10195;50.868;4.382;2024-03-08T05:46:45;40.07;;;22.07;;
20069;SDS011;10195;50.868;4.382;2024-03-08T05:49:11;32.63;;;20.37;;
20069;SDS011;10195;50.868;4.382;2024-03-08T05:51:38;35.63;;;21.37;;
20069;SDS011;10195;50.868;4.382;2024-03-08T05:54:05;34.93;;;21.13;;
20069;SDS011;10195;50.868;4.382;2024-03-08T05:56:32;35.87;;;21.90;;
20069;SDS011;10195;50.868;4.382;2024-03-08T05:58:58;36.90;;;21.53;;
20069;SDS011;10195;50.868;4.382;2024-03-08T06:01:27;35.23;;;19.73;;
20069;SDS011;10195;50.868;4.382;2024-03-08T06:04:01;37.53;;;21.23;;
20069;SDS011;10195;50.868;4.382;2024-03-08T06:06:28;39.93;;;20.80;;
20069;SDS011;10195;50.868;4.382;2024-03-08T06:08:53;33.67;;;20.70;;
20069;SDS011;10195;50.868;4.382;2024-03-08T06:11:21;34.43;;;20.47;;
20069;SDS011;10195;50.868;4.382;2024-03-08T06:13:47;39.63;;;21.97;;
20069;SDS011;10195;50.868;4.382;2024-03-08T06:16:15;35.80;;;20.60;;
20069;SDS011;10195;50.868;4.382;2024-03-08T06:18:40;44.27;;;21.03;;
20069;SDS011;10195;50.868;4.382;2024-03-08T06:21:06;34.07;;;21.23;;
20069;SDS011;10195;50.868;4.382;2024-03-08T06:23:37;33.47;;;20.70;;
20069;SDS011;10195;50.868;4.382;2024-03-08T06:26:04;37.27;;;22.20;;
20069;SDS011;10195;50.868;4.382;2024-03-08T06:28:30;35.90;;;19.73;;
20069;SDS011;10195;50.868;4.382;2024-03-08T06:30:57;33.00;;;19.77;;
20069;SDS011;10195;50.868;4.382;2024-03-08T06:33:23;33.40;;;20.00;;
20069;SDS011;10195;50.868;4.382;2024-03-08T06:35:51;35.57;;;21.07;;
20069;SDS011;10195;50.868;4.382;2024-03-08T06:38:17;31.27;;;20.20;;
20069;SDS011;10195;50.868;4.382;2024-03-08T06:40:44;33.57;;;20.90;;
20069;SDS011;10195;50.868;4.382;2024-03-08T06:43:12;36.40;;;20.63;;
20069;SDS011;10195;50.868;4.382;2024-03-08T06:45:41;34.97;;;20.27;;
20069;SDS011;10195;50.868;4.382;2024-03-08T06:48:07;32.73;;;19.93;;
20069;SDS011;10195;50.868;4.382;2024-03-08T06:50:34;32.43;;;20.63;;
20069;SDS011;10195;50.868;4.382;2024-03-08T06:53:01;35.93;;;21.13;;
20069;SDS011;10195;50.868;4.382;2024-03-08T06:55:28;33.90;;;20.40;;
20069;SDS011;10195;50.868;4.382;2024-03-08T06:57:54;36.70;;;20.33;;
20069;SDS011;10195;50.868;4.382;2024-03-08T07:00:19;40.33;;;20.77;;
20069;SDS011;10195;50.868;4.382;2024-03-08T07:02:45;38.43;;;20.13;;
20069;SDS011;10195;50.868;4.382;2024-03-08T07:05:13;38.33;;;20.43;;
20069;SDS011;10195;50.868;4.382;2024-03-08T07:07:39;31.70;;;19.07;;
20069;SDS011;10195;50.868;4.382;2024-03-08T07:10:06;32.07;;;19.97;;
20069;SDS011;10195;50.868;4.382;2024-03-08T07:12:36;36.73;;;20.63;;
20069;SDS011;10195;50.868;4.382;2024-03-08T07:15:05;34.00;;;19.40;;
20069;SDS011;10195;50.868;4.382;2024-03-08T07:17:31;33.10;;;17.17;;
20069;SDS011;10195;50.868;4.382;2024-03-08T07:19:59;37.40;;;20.30;;
20069;SDS011;10195;50.868;4.382;2024-03-08T07:22:32;33.43;;;19.33;;
20069;SDS011;10195;50.868;4.382;2024-03-08T07:24:58;32.50;;;18.83;;
20069;SDS011;10195;50.868;4.382;2024-03-08T07:27:32;44.23;;;19.40;;
20069;SDS011;10195;50.868;4.382;2024-03-08T07:29:59;36.47;;;19.27;;
20069;SDS011;10195;50.868;4.382;2024-03-08T07:32:25;36.00;;;18.43;;
20069;SDS011;10195;50.868;4.382;2024-03-08T07:34:54;34.60;;;18.73;;
20069;SDS011;10195;50.868;4.382;2024-03-08T07:37:21;32.40;;;17.73;;
20069;SDS011;10195;50.868;4.382;2024-03-08T07:39:47;28.37;;;17.67;;
20069;SDS011;10195;50.868;4.382;2024-03-08T07:42:12;32.50;;;17.37;;
20069;SDS011;10195;50.868;4.382;2024-03-08T07:44:38;32.53;;;17.10;;
20069;SDS011;10195;50.868;4.382;2024-03-08T07:47:05;30.07;;;18.37;;
20069;SDS011;10195;50.868;4.382;2024-03-08T07:49:34;24.47;;;14.30;;
20069;SDS011;10195;50.868;4.382;2024-03-08T07:52:00;26.03;;;16.80;;
20069;SDS011;10195;50.868;4.382;2024-03-08T07:54:26;30.67;;;17.40;;
20069;SDS011;10195;50.868;4.382;2024-03-08T07:56:52;36.20;;;17.70;;
20069;SDS011;10195;50.868;4.382;2024-03-08T07:59:18;31.00;;;17.63;;
20069;SDS011;10195;50.868;4.382;2024-03-08T08:01:44;27.47;;;14.80;;
20069;SDS011;10195;50.868;4.382;2024-03-08T08:04:10;30.87;;;18.47;;
20069;SDS011;10195;50.868;4.382;2024-03-08T08:06:40;28.10;;;17.27;;
20069;SDS011;10195;50.868;4.382;2024-03-08T08:09:07;23.90;;;15.10;;
20069;SDS011;10195;50.868;4.382;2024-03-08T08:11:39;32.17;;;18.03;;
20069;SDS011;10195;50.868;4.382;2024-03-08T08:14:06;31.23;;;17.97;;
20069;SDS011;10195;50.868;4.382;2024-03-08T08:16:34;30.23;;;18.37;;
20069;SDS011;10195;50.868;4.382;2024-03-08T08:19:02;26.70;;;15.33;;
20069;SDS011;10195;50.868;4.382;2024-03-08T08:21:33;33.53;;;16.93;;
20069;SDS011;10195;50.868;4.382;2024-03-08T08:24:02;31.33;;;17.00;;
20069;SDS011;10195;50.868;4.382;2024-03-08T08:26:28;27.00;;;17.03;;
20069;SDS011;10195;50.868;4.382;2024-03-08T08:28:54;28.53;;;15.93;;
20069;SDS011;10195;50.868;4.382;2024-03-08T08:31:20;32.83;;;18.37;;
20069;SDS011;10195;50.868;4.382;2024-03-08T08:33:45;27.70;;;15.80;;
20069;SDS011;10195;50.868;4.382;2024-03-08T08:36:13;29.93;;;17.50;;
20069;SDS011;10195;50.868;4.382;2024-03-08T08:38:38;29.70;;;17.60;;
20069;SDS011;10195;50.868;4.382;2024-03-08T08:41:04;32.07;;;17.67;;
20069;SDS011;10195;50.868;4.382;2024-03-08T08:43:31;28.40;;;17.00;;
20069;SDS011;10195;50.868;4.382;2024-03-08T08:45:58;32.73;;;18.23;;
20069;SDS011;10195;50.868;4.382;2024-03-08T08:48:24;37.53;;;17.47;;
20069;SDS011;10195;50.868;4.382;2024-03-08T08:50:50;29.67;;;15.53;;
20069;SDS011;10195;50.868;4.382;2024-03-08T08:53:17;25.83;;;16.40;;
20069;SDS011;10195;50.868;4.382;2024-03-08T08:55:43;25.07;;;13.60;;
20069;SDS011;10195;50.868;4.382;2024-03-08T08:58:11;28.30;;;17.70;;
20069;SDS011;10195;50.868;4.382;2024-03-08T09:00:36;23.07;;;15.30;;
20069;SDS011;10195;50.868;4.382;2024-03-08T09:03:02;25.13;;;15.23;;
20069;SDS011;10195;50.868;4.382;2024-03-08T09:05:28;30.00;;;15.63;;
20069;SDS011;10195;50.868;4.382;2024-03-08T09:07:54;26.83;;;16.73;;
20069;SDS011;10195;50.868;4.382;2024-03-08T09:10:20;27.03;;;16.23;;
20069;SDS011;10195;50.868;4.382;2024-03-08T09:12:46;26.77;;;16.87;;
20069;SDS011;10195;50.868;4.382;2024-03-08T09:15:12;23.77;;;15.30;;
20069;SDS011;10195;50.868;4.382;2024-03-08T09:17:38;30.33;;;16.20;;
20069;SDS011;10195;50.868;4.382;2024-03-08T09:20:08;24.90;;;15.07;;
20069;SDS011;10195;50.868;4.382;2024-03-08T09:22:45;24.67;;;15.53;;
20069;SDS011;10195;50.868;4.382;2024-03-08T09:25:11;26.03;;;15.50;;
20069;SDS011;10195;50.868;4.382;2024-03-08T09:27:36;26.50;;;15.73;;
20069;SDS011;10195;50.868;4.382;2024-03-08T09:30:02;26.40;;;15.40;;
20069;SDS011;10195;50.868;4.382;2024-03-08T09:32:29;27.50;;;16.17;;
20069;SDS011;10195;50.868;4.382;2024-03-08T09:34:55;26.97;;;15.77;;
20069;SDS011;10195;50.868;4.382;2024-03-08T09:37:21;24.23;;;16.07;;
20069;SDS011;10195;50.868;4.382;2024-03-08T09:39:47;27.40;;;15.47;;
20069;SDS011;10195;50.868;4.382;2024-03-08T09:42:13;25.63;;;15.80;;
20069;SDS011;10195;50.868;4.382;2024-03-08T09:44:44;24.53;;;14.83;;
20069;SDS011;10195;50.868;4.382;2024-03-08T09:47:12;21.70;;;14.07;;
20069;SDS011;10195;50.868;4.382;2024-03-08T09:49:39;24.27;;;15.17;;
20069;SDS011;10195;50.868;4.382;2024-03-08T09:52:06;23.13;;;14.63;;
20069;SDS011;10195;50.868;4.382;2024-03-08T09:54:32;25.37;;;14.90;;
20069;SDS011;10195;50.868;4.382;2024-03-08T09:56:59;25.50;;;15.53;;
20069;SDS011;10195;50.868;4.382;2024-03-08T09:59:24;17.30;;;11.43;;
20069;SDS011;10195;50.868;4.382;2024-03-08T10:01:50;17.90;;;12.00;;
20069;SDS011;10195;50.868;4.382;2024-03-08T10:04:17;28.23;;;15.37;;
20069;SDS011;10195;50.868;4.382;2024-03-08T10:06:43;23.03;;;15.90;;
20069;SDS011;10195;50.868;4.382;2024-03-08T10:09:12;24.53;;;15.50;;
20069;SDS011;10195;50.868;4.382;2024-03-08T10:11:39;22.73;;;14.73;;
20069;SDS011;10195;50.868;4.382;2024-03-08T10:14:05;23.00;;;15.67;;
20069;SDS011;10195;50.868;4.382;2024-03-08T10:16:32;23.47;;;14.30;;
20069;SDS011;10195;50.868;4.382;2024-03-08T10:19:00;20.87;;;11.47;;
20069;SDS011;10195;50.868;4.382;2024-03-08T10:21:25;21.77;;;15.07;;
20069;SDS011;10195;50.868;4.382;2024-03-08T10:23:52;21.87;;;14.40;;
20069;SDS011;10195;50.868;4.382;2024-03-08T10:26:18;22.70;;;15.83;;
20069;SDS011;10195;50.868;4.382;2024-03-08T10:28:50;21.83;;;14.23;;
20069;SDS011;10195;50.868;4.382;2024-03-08T10:31:18;23.63;;;14.10;;
20069;SDS011;10195;50.868;4.382;2024-03-08T10:33:48;24.63;;;15.23;;
20069;SDS011;10195;50.868;4.382;2024-03-08T10:36:14;23.43;;;14.80;;
20069;SDS011;10195;50.868;4.382;2024-03-08T10:38:41;21.57;;;14.17;;
20069;SDS011;10195;50.868;4.382;2024-03-08T10:41:11;24.87;;;15.67;;
20069;SDS011;10195;50.868;4.382;2024-03-08T10:43:42;23.23;;;15.30;;
20069;SDS011;10195;50.868;4.382;2024-03-08T10:46:21;26.63;;;15.37;;
20069;SDS011;10195;50.868;4.382;2024-03-08T10:49:12;25.17;;;14.23;;
20069;SDS011;10195;50.868;4.382;2024-03-08T10:51:44;21.20;;;14.70;;
20069;SDS011;10195;50.868;4.382;2024-03-08T10:54:12;22.30;;;15.10;;
20069;SDS011;10195;50.868;4.382;2024-03-08T10:56:40;24.13;;;14.47;;
20069;SDS011;10195;50.868;4.382;2024-03-08T10:59:08;25.00;;;14.50;;
20069;SDS011;10195;50.868;4.382;2024-03-08T11:01:34;21.63;;;15.23;;
20069;SDS011;10195;50.868;4.382;2024-03-08T11:04:00;23.43;;;14.80;;
20069;SDS011;10195;50.868;4.382;2024-03-08T11:15:01;23.73;;;15.13;;
20069;SDS011;10195;50.868;4.382;2024-03-08T11:20:13;19.53;;;12.83;;
20069;SDS011;10195;50.868;4.382;2024-03-08T11:25:37;24.67;;;14.40;;
20069;SDS011;10195;50.868;4.382;2024-03-08T11:28:07;21.43;;;14.17;;
20069;SDS011;10195;50.868;4.382;2024-03-08T11:30:35;30.27;;;15.80;;
20069;SDS011;10195;50.868;4.382;2024-03-08T11:33:03;23.77;;;14.47;;
20069;SDS011;10195;50.868;4.382;2024-03-08T11:35:29;24.13;;;15.30;;
20069;SDS011;10195;50.868;4.382;2024-03-08T11:37:57;23.37;;;14.33;;
20069;SDS011;10195;50.868;4.382;2024-03-08T11:40:25;23.23;;;15.90;;
20069;SDS011;10195;50.868;4.382;2024-03-08T11:42:51;21.73;;;14.77;;
20069;SDS011;10195;50.868;4.382;2024-03-08T11:45:17;25.63;;;14.70;;
20069;SDS011;10195;50.868;4.382;2024-03-08T11:47:46;22.40;;;14.40;;
20069;SDS011;10195;50.868;4.382;2024-03-08T11:50:13;21.60;;;12.53;;
20069;SDS011;10195;50.868;4.382;2024-03-08T11:52:39;23.60;;;15.03;;
20069;SDS011;10195;50.868;4.382;2024-03-08T11:55:05;20.50;;;13.93;;
20069;SDS011;10195;50.868;4.382;2024-03-08T11:57:32;23.13;;;14.37;;
20069;SDS011;10195;50.868;4.382;2024-03-08T11:59:58;25.80;;;13.20;;
20069;SDS011;10195;50.868;4.382;2024-03-08T12:02:31;24.17;;;14.73;;
20069;SDS011;10195;50.868;4.382;2024-03-08T12:05:05;21.73;;;13.47;;
20069;SDS011;10195;50.868;4.382;2024-03-08T12:07:31;26.13;;;15.23;;
20069;SDS011;10195;50.868;4.382;2024-03-08T12:12:47;20.30;;;13.50;;
20069;SDS011;10195;50.868;4.382;2024-03-08T12:15:16;22.00;;;14.90;;
20069;SDS011;10195;50.868;4.382;2024-03-08T12:17:43;24.47;;;14.70;;
20069;SDS011;10195;50.868;4.382;2024-03-08T12:20:15;22.13;;;14.30;;
20069;SDS011;10195;50.868;4.382;2024-03-08T12:22:41;20.13;;;13.03;;
20069;SDS011;10195;50.868;4.382;2024-03-08T12:25:08;25.00;;;14.87;;
20069;SDS011;10195;50.868;4.382;2024-03-08T12:27:36;22.40;;;14.73;;
20069;SDS011;10195;50.868;4.382;2024-03-08T12:32:58;23.37;;;15.03;;
20069;SDS011;10195;50.868;4.382;2024-03-08T12:35:25;22.30;;;14.47;;
20069;SDS011;10195;50.868;4.382;2024-03-08T12:37:53;26.40;;;14.67;;
20069;SDS011;10195;50.868;4.382;2024-03-08T12:40:29;18.80;;;12.10;;
20069;SDS011;10195;50.868;4.382;2024-03-08T12:42:56;20.63;;;14.27;;
20069;SDS011;10195;50.868;4.382;2024-03-08T12:45:23;21.90;;;13.83;;
20069;SDS011;10195;50.868;4.382;2024-03-08T12:47:50;23.67;;;14.00;;
20069;SDS011;10195;50.868;4.382;2024-03-08T12:50:20;19.63;;;13.13;;
20069;SDS011;10195;50.868;4.382;2024-03-08T12:52:49;25.73;;;12.37;;
20069;SDS011;10195;50.868;4.382;2024-03-08T12:55:15;23.13;;;13.00;;
20069;SDS011;10195;50.868;4.382;2024-03-08T12:57:43;21.07;;;12.93;;
20069;SDS011;10195;50.868;4.382;2024-03-08T13:00:09;22.20;;;14.50;;
20069;SDS011;10195;50.868;4.382;2024-03-08T13:02:43;20.00;;;13.37;;
20069;SDS011;10195;50.868;4.382;2024-03-08T13:05:12;22.33;;;14.70;;
20069;SDS011;10195;50.868;4.382;2024-03-08T13:07:39;24.50;;;14.73;;
20069;SDS011;10195;50.868;4.382;2024-03-08T13:10:10;19.30;;;13.50;;
20069;SDS011;10195;50.868;4.382;2024-03-08T13:12:42;21.77;;;14.00;;
20069;SDS011;10195;50.868;4.382;2024-03-08T13:15:09;21.90;;;13.93;;
20069;SDS011;10195;50.868;4.382;2024-03-08T13:17:55;22.30;;;14.50;;
20069;SDS011;10195;50.868;4.382;2024-03-08T13:20:25;19.30;;;12.47;;
20069;SDS011;10195;50.868;4.382;2024-03-08T13:22:53;20.47;;;13.57;;
20069;SDS011;10195;50.868;4.382;2024-03-08T13:25:19;24.23;;;14.37;;
20069;SDS011;10195;50.868;4.382;2024-03-08T13:27:45;17.10;;;9.63;;
20069;SDS011;10195;50.868;4.382;2024-03-08T13:30:12;21.80;;;14.27;;
20069;SDS011;10195;50.868;4.382;2024-03-08T13:32:42;16.30;;;9.50;;
20069;SDS011;10195;50.868;4.382;2024-03-08T13:35:11;20.93;;;12.07;;
20069;SDS011;10195;50.868;4.382;2024-03-08T13:37:41;21.80;;;14.00;;
20069;SDS011;10195;50.868;4.382;2024-03-08T13:40:07;24.50;;;13.33;;
20069;SDS011;10195;50.868;4.382;2024-03-08T13:42:39;21.67;;;13.17;;
20069;SDS011;10195;50.868;4.382;2024-03-08T13:45:06;19.30;;;12.13;;
20069;SDS011;10195;50.868;4.382;2024-03-08T13:47:36;17.67;;;11.43;;
20069;SDS011;10195;50.868;4.382;2024-03-08T13:50:02;20.20;;;12.23;;
20069;SDS011;10195;50.868;4.382;2024-03-08T13:52:29;18.53;;;11.47;;
20069;SDS011;10195;50.868;4.382;2024-03-08T13:54:55;21.00;;;13.10;;
20069;SDS011;10195;50.868;4.382;2024-03-08T13:57:21;23.27;;;12.37;;
20069;SDS011;10195;50.868;4.382;2024-03-08T13:59:47;20.17;;;12.40;;
20069;SDS011;10195;50.868;4.382;2024-03-08T14:02:16;18.13;;;12.50;;
20069;SDS011;10195;50.868;4.382;2024-03-08T14:04:42;18.97;;;12.37;;
20069;SDS011;10195;50.868;4.382;2024-03-08T14:07:08;20.37;;;12.67;;
20069;SDS011;10195;50.868;4.382;2024-03-08T14:09:34;21.30;;;12.30;;
20069;SDS011;10195;50.868;4.382;2024-03-08T14:12:08;21.73;;;12.90;;
20069;SDS011;10195;50.868;4.382;2024-03-08T14:14:34;23.50;;;11.87;;
20069;SDS011;10195;50.868;4.382;2024-03-08T14:17:00;17.53;;;11.90;;
20069;SDS011;10195;50.868;4.382;2024-03-08T14:19:29;20.83;;;12.87;;
20069;SDS011;10195;50.868;4.382;2024-03-08T14:21:56;15.57;;;10.33;;
20069;SDS011;10195;50.868;4.382;2024-03-08T14:24:24;21.47;;;12.87;;
20069;SDS011;10195;50.868;4.382;2024-03-08T14:26:50;24.60;;;13.50;;
20069;SDS011;10195;50.868;4.382;2024-03-08T14:29:16;19.27;;;13.10;;
20069;SDS011;10195;50.868;4.382;2024-03-08T14:31:43;17.87;;;12.00;;
20069;SDS011;10195;50.868;4.382;2024-03-08T14:34:10;22.17;;;12.13;;
20069;SDS011;10195;50.868;4.382;2024-03-08T14:36:35;19.63;;;12.93;;
20069;SDS011;10195;50.868;4.382;2024-03-08T14:39:02;18.40;;;12.33;;
20069;SDS011;10195;50.868;4.382;2024-03-08T14:41:28;19.57;;;11.80;;